sensor_id;sensor_type;location;lat;lon;timestamp;temperature;humidity
43346;DHT22;28937;51.160;4.146;2022-10-04T00:00:07;15.50;97.80
43346;DHT22;28937;51.160;4.146;2022-10-04T00:02:33;15.40;97.70
43346;DHT22;28937;51.160;4.146;2022-10-04T00:05:04;15.50;97.80
43346;DHT22;28937;51.160;4.146;2022-10-04T00:07:38;15.50;97.70
43346;DHT22;28937;51.160;4.146;2022-10-04T00:10:25;15.50;97.60
43346;DHT22;28937;51.160;4.146;2022-10-04T00:12:58;15.40;97.60
43346;DHT22;28937;51.160;4.146;2022-10-04T00:15:27;15.40;97.60
43346;DHT22;28937;51.160;4.146;2022-10-04T00:18:06;15.40;97.70
43346;DHT22;28937;51.160;4.146;2022-10-04T00:31:16;15.30;97.70
43346;DHT22;28937;51.160;4.146;2022-10-04T00:36:33;15.30;97.80
43346;DHT22;28937;51.160;4.146;2022-10-04T00:44:32;15.30;97.70
43346;DHT22;28937;51.160;4.146;2022-10-04T00:47:02;15.30;97.70
43346;DHT22;28937;51.160;4.146;2022-10-04T00:49:39;15.20;97.70
43346;DHT22;28937;51.160;4.146;2022-10-04T00:52:17;15.20;97.70
43346;DHT22;28937;51.160;4.146;2022-10-04T00:54:48;15.20;97.80
43346;DHT22;28937;51.160;4.146;2022-10-04T00:57:24;15.10;97.80
43346;DHT22;28937;51.160;4.146;2022-10-04T00:59:56;15.20;97.80
43346;DHT22;28937;51.160;4.146;2022-10-04T01:05:16;15.10;97.80
43346;DHT22;28937;51.160;4.146;2022-10-04T01:07:46;15.10;97.90
43346;DHT22;28937;51.160;4.146;2022-10-04T01:10:30;15.10;98.00
43346;DHT22;28937;51.160;4.146;2022-10-04T01:13:06;15.10;98.00
43346;DHT22;28937;51.160;4.146;2022-10-04T01:16:00;15.10;98.00
43346;DHT22;28937;51.160;4.146;2022-10-04T01:18:32;15.00;97.90
43346;DHT22;28937;51.160;4.146;2022-10-04T01:23:50;15.00;98.00
43346;DHT22;28937;51.160;4.146;2022-10-04T01:28:52;15.00;98.10
43346;DHT22;28937;51.160;4.146;2022-10-04T01:31:18;15.00;98.10
43346;DHT22;28937;51.160;4.146;2022-10-04T01:33:43;15.00;98.10
43346;DHT22;28937;51.160;4.146;2022-10-04T01:36:09;14.90;98.10
43346;DHT22;28937;51.160;4.146;2022-10-04T01:38:35;14.90;98.20
43346;DHT22;28937;51.160;4.146;2022-10-04T01:41:02;14.90;98.20
43346;DHT22;28937;51.160;4.146;2022-10-04T01:43:32;14.90;98.30
43346;DHT22;28937;51.160;4.146;2022-10-04T01:46:12;14.90;98.20
43346;DHT22;28937;51.160;4.146;2022-10-04T01:48:41;14.90;98.20
43346;DHT22;28937;51.160;4.146;2022-10-04T01:54:09;14.80;98.20
43346;DHT22;28937;51.160;4.146;2022-10-04T01:57:03;14.90;98.20
43346;DHT22;28937;51.160;4.146;2022-10-04T01:59:35;14.80;98.20
43346;DHT22;28937;51.160;4.146;2022-10-04T02:02:18;14.80;98.20
43346;DHT22;28937;51.160;4.146;2022-10-04T02:04:44;14.80;98.30
43346;DHT22;28937;51.160;4.146;2022-10-04T02:07:16;14.70;98.20
43346;DHT22;28937;51.160;4.146;2022-10-04T02:09:45;14.70;98.40
43346;DHT22;28937;51.160;4.146;2022-10-04T02:12:16;14.70;98.50
43346;DHT22;28937;51.160;4.146;2022-10-04T02:14:46;14.70;98.50
43346;DHT22;28937;51.160;4.146;2022-10-04T02:17:21;14.70;98.50
43346;DHT22;28937;51.160;4.146;2022-10-04T02:19:49;14.70;98.60
43346;DHT22;28937;51.160;4.146;2022-10-04T02:22:15;14.70;98.60
43346;DHT22;28937;51.160;4.146;2022-10-04T02:24:44;14.70;98.60
43346;DHT22;28937;51.160;4.146;2022-10-04T02:27:11;14.60;98.70
43346;DHT22;28937;51.160;4.146;2022-10-04T02:29:36;14.60;98.70
43346;DHT22;28937;51.160;4.146;2022-10-04T02:32:06;14.60;98.80
43346;DHT22;28937;51.160;4.146;2022-10-04T02:34:51;14.60;98.90
43346;DHT22;28937;51.160;4.146;2022-10-04T02:37:21;14.60;98.90
43346;DHT22;28937;51.160;4.146;2022-10-04T02:39:52;14.60;98.90
43346;DHT22;28937;51.160;4.146;2022-10-04T02:42:39;14.60;98.90
43346;DHT22;28937;51.160;4.146;2022-10-04T02:45:35;14.60;98.80
43346;DHT22;28937;51.160;4.146;2022-10-04T02:48:21;14.60;98.80
43346;DHT22;28937;51.160;4.146;2022-10-04T02:50:50;14.50;98.80
43346;DHT22;28937;51.160;4.146;2022-10-04T02:53:25;14.50;99.00
43346;DHT22;28937;51.160;4.146;2022-10-04T02:55:51;14.50;99.10
43346;DHT22;28937;51.160;4.146;2022-10-04T02:58:20;14.50;99.10
43346;DHT22;28937;51.160;4.146;2022-10-04T03:00:55;14.50;99.20
43346;DHT22;28937;51.160;4.146;2022-10-04T03:06:16;14.40;99.20
43346;DHT22;28937;51.160;4.146;2022-10-04T03:08:46;14.40;99.10
43346;DHT22;28937;51.160;4.146;2022-10-04T03:11:14;14.40;99.30
43346;DHT22;28937;51.160;4.146;2022-10-04T03:13:45;14.40;99.30
43346;DHT22;28937;51.160;4.146;2022-10-04T03:16:11;14.40;99.20
43346;DHT22;28937;51.160;4.146;2022-10-04T03:18:37;14.30;99.30
43346;DHT22;28937;51.160;4.146;2022-10-04T03:21:08;14.40;99.30
43346;DHT22;28937;51.160;4.146;2022-10-04T03:23:35;14.40;99.40
43346;DHT22;28937;51.160;4.146;2022-10-04T03:26:06;14.30;99.40
43346;DHT22;28937;51.160;4.146;2022-10-04T03:28:38;14.30;99.50
43346;DHT22;28937;51.160;4.146;2022-10-04T03:31:04;14.30;99.50
43346;DHT22;28937;51.160;4.146;2022-10-04T03:33:30;14.30;99.50
43346;DHT22;28937;51.160;4.146;2022-10-04T03:35:57;14.20;99.50
43346;DHT22;28937;51.160;4.146;2022-10-04T03:38:26;14.30;99.40
43346;DHT22;28937;51.160;4.146;2022-10-04T03:40:59;14.30;99.40
43346;DHT22;28937;51.160;4.146;2022-10-04T03:43:28;14.30;99.40
43346;DHT22;28937;51.160;4.146;2022-10-04T03:46:00;14.30;99.50
43346;DHT22;28937;51.160;4.146;2022-10-04T03:48:34;14.20;99.50
43346;DHT22;28937;51.160;4.146;2022-10-04T03:51:02;14.20;99.50
43346;DHT22;28937;51.160;4.146;2022-10-04T03:53:38;14.20;99.60
43346;DHT22;28937;51.160;4.146;2022-10-04T03:56:15;14.20;99.60
43346;DHT22;28937;51.160;4.146;2022-10-04T03:58:41;14.20;99.50
43346;DHT22;28937;51.160;4.146;2022-10-04T04:06:29;14.10;99.40
43346;DHT22;28937;51.160;4.146;2022-10-04T04:08:57;14.10;99.40
43346;DHT22;28937;51.160;4.146;2022-10-04T04:11:26;14.10;99.50
43346;DHT22;28937;51.160;4.146;2022-10-04T04:14:02;14.10;99.50
43346;DHT22;28937;51.160;4.146;2022-10-04T04:16:30;14.10;99.40
43346;DHT22;28937;51.160;4.146;2022-10-04T04:19:00;14.10;99.70
43346;DHT22;28937;51.160;4.146;2022-10-04T04:21:27;14.10;99.40
43346;DHT22;28937;51.160;4.146;2022-10-04T04:24:02;14.10;99.40
43346;DHT22;28937;51.160;4.146;2022-10-04T04:26:37;14.10;99.40
43346;DHT22;28937;51.160;4.146;2022-10-04T04:29:15;14.00;99.40
43346;DHT22;28937;51.160;4.146;2022-10-04T04:31:50;14.00;99.40
43346;DHT22;28937;51.160;4.146;2022-10-04T04:34:29;14.00;99.40
43346;DHT22;28937;51.160;4.146;2022-10-04T04:36:59;14.00;99.40
43346;DHT22;28937;51.160;4.146;2022-10-04T04:39:27;14.00;99.40
43346;DHT22;28937;51.160;4.146;2022-10-04T04:52:33;13.90;99.40
43346;DHT22;28937;51.160;4.146;2022-10-04T04:55:00;13.90;99.40
43346;DHT22;28937;51.160;4.146;2022-10-04T04:57:26;13.90;99.40
43346;DHT22;28937;51.160;4.146;2022-10-04T04:59:54;13.80;99.30
43346;DHT22;28937;51.160;4.146;2022-10-04T05:02:33;13.80;99.30
43346;DHT22;28937;51.160;4.146;2022-10-04T05:05:23;13.80;99.30
43346;DHT22;28937;51.160;4.146;2022-10-04T05:08:02;13.80;99.30
43346;DHT22;28937;51.160;4.146;2022-10-04T05:10:32;13.80;99.40
43346;DHT22;28937;51.160;4.146;2022-10-04T05:12:59;13.80;99.30
43346;DHT22;28937;51.160;4.146;2022-10-04T05:15:27;13.80;98.80
43346;DHT22;28937;51.160;4.146;2022-10-04T05:17:56;13.80;98.40
43346;DHT22;28937;51.160;4.146;2022-10-04T05:20:21;13.80;98.20
43346;DHT22;28937;51.160;4.146;2022-10-04T05:22:48;13.80;98.10
43346;DHT22;28937;51.160;4.146;2022-10-04T05:25:31;13.80;98.10
43346;DHT22;28937;51.160;4.146;2022-10-04T05:27:58;13.80;98.10
43346;DHT22;28937;51.160;4.146;2022-10-04T05:30:45;13.70;98.30
43346;DHT22;28937;51.160;4.146;2022-10-04T05:33:17;13.80;98.30
43346;DHT22;28937;51.160;4.146;2022-10-04T05:35:57;13.70;98.40
43346;DHT22;28937;51.160;4.146;2022-10-04T05:38:33;13.80;98.40
43346;DHT22;28937;51.160;4.146;2022-10-04T05:41:19;13.70;98.40
43346;DHT22;28937;51.160;4.146;2022-10-04T05:43:50;13.70;98.50
43346;DHT22;28937;51.160;4.146;2022-10-04T05:46:29;13.70;98.60
43346;DHT22;28937;51.160;4.146;2022-10-04T05:49:13;13.70;98.50
43346;DHT22;28937;51.160;4.146;2022-10-04T05:51:55;13.80;98.70
43346;DHT22;28937;51.160;4.146;2022-10-04T05:54:32;13.80;98.70
43346;DHT22;28937;51.160;4.146;2022-10-04T05:57:17;13.70;98.80
43346;DHT22;28937;51.160;4.146;2022-10-04T06:05:48;13.70;98.90
43346;DHT22;28937;51.160;4.146;2022-10-04T06:08:26;13.60;99.00
43346;DHT22;28937;51.160;4.146;2022-10-04T06:16:57;13.60;99.50
43346;DHT22;28937;51.160;4.146;2022-10-04T06:22:29;13.60;99.70
43346;DHT22;28937;51.160;4.146;2022-10-04T06:25:01;13.60;99.80
43346;DHT22;28937;51.160;4.146;2022-10-04T06:30:17;13.50;99.90
43346;DHT22;28937;51.160;4.146;2022-10-04T06:57:17;13.70;99.90
43346;DHT22;28937;51.160;4.146;2022-10-04T07:00:07;13.70;99.90
43346;DHT22;28937;51.160;4.146;2022-10-04T07:02:48;13.70;99.90
43346;DHT22;28937;51.160;4.146;2022-10-04T07:05:16;13.70;99.90
43346;DHT22;28937;51.160;4.146;2022-10-04T07:07:46;13.80;99.90
43346;DHT22;28937;51.160;4.146;2022-10-04T07:15:29;13.90;99.90
43346;DHT22;28937;51.160;4.146;2022-10-04T07:17:58;13.90;99.90
43346;DHT22;28937;51.160;4.146;2022-10-04T07:20:30;13.90;99.90
43346;DHT22;28937;51.160;4.146;2022-10-04T07:23:04;13.90;99.90
43346;DHT22;28937;51.160;4.146;2022-10-04T07:25:41;14.00;99.90
43346;DHT22;28937;51.160;4.146;2022-10-04T07:31:13;14.00;99.90
43346;DHT22;28937;51.160;4.146;2022-10-04T07:33:50;14.10;99.90
43346;DHT22;28937;51.160;4.146;2022-10-04T07:36:20;14.10;99.90
43346;DHT22;28937;51.160;4.146;2022-10-04T07:38:55;14.10;99.90
43346;DHT22;28937;51.160;4.146;2022-10-04T07:41:35;14.10;99.90
43346;DHT22;28937;51.160;4.146;2022-10-04T07:44:12;14.20;99.90
43346;DHT22;28937;51.160;4.146;2022-10-04T07:47:00;14.30;99.90
43346;DHT22;28937;51.160;4.146;2022-10-04T07:49:28;14.30;99.90
43346;DHT22;28937;51.160;4.146;2022-10-04T07:52:19;14.30;99.90
43346;DHT22;28937;51.160;4.146;2022-10-04T07:58:10;14.50;99.90
43346;DHT22;28937;51.160;4.146;2022-10-04T08:07:09;14.50;99.90
43346;DHT22;28937;51.160;4.146;2022-10-04T08:15:34;14.70;99.90
43346;DHT22;28937;51.160;4.146;2022-10-04T08:20:57;14.70;99.80
43346;DHT22;28937;51.160;4.146;2022-10-04T08:23:40;14.80;99.60
43346;DHT22;28937;51.160;4.146;2022-10-04T08:40:00;14.90;99.40
43346;DHT22;28937;51.160;4.146;2022-10-04T08:42:48;15.00;99.30
43346;DHT22;28937;51.160;4.146;2022-10-04T08:45:50;15.00;99.30
43346;DHT22;28937;51.160;4.146;2022-10-04T08:51:25;15.10;99.30
43346;DHT22;28937;51.160;4.146;2022-10-04T08:54:19;15.10;99.20
43346;DHT22;28937;51.160;4.146;2022-10-04T09:00:18;15.10;99.30
43346;DHT22;28937;51.160;4.146;2022-10-04T09:03:20;15.10;99.00
43346;DHT22;28937;51.160;4.146;2022-10-04T09:19:51;15.30;98.90
43346;DHT22;28937;51.160;4.146;2022-10-04T09:22:33;15.30;98.90
43346;DHT22;28937;51.160;4.146;2022-10-04T09:28:24;15.30;98.90
43346;DHT22;28937;51.160;4.146;2022-10-04T09:39:10;15.40;98.90
43346;DHT22;28937;51.160;4.146;2022-10-04T09:42:01;15.40;98.80
43346;DHT22;28937;51.160;4.146;2022-10-04T09:44:45;15.50;98.80
43346;DHT22;28937;51.160;4.146;2022-10-04T10:01:04;15.60;98.80
43346;DHT22;28937;51.160;4.146;2022-10-04T10:06:25;15.70;98.80
43346;DHT22;28937;51.160;4.146;2022-10-04T10:21:10;15.80;98.90
43346;DHT22;28937;51.160;4.146;2022-10-04T10:24:03;15.70;99.00
43346;DHT22;28937;51.160;4.146;2022-10-04T10:29:38;15.80;98.90
43346;DHT22;28937;51.160;4.146;2022-10-04T10:35:39;15.80;98.90
43346;DHT22;28937;51.160;4.146;2022-10-04T10:46:50;15.90;99.10
43346;DHT22;28937;51.160;4.146;2022-10-04T10:49:39;16.00;99.00
43346;DHT22;28937;51.160;4.146;2022-10-04T10:55:25;16.00;99.00
43346;DHT22;28937;51.160;4.146;2022-10-04T11:00:54;16.00;94.40
43346;DHT22;28937;51.160;4.146;2022-10-04T11:06:15;16.10;94.10
43346;DHT22;28937;51.160;4.146;2022-10-04T11:14:33;16.20;95.00
43346;DHT22;28937;51.160;4.146;2022-10-04T11:20:39;16.30;97.10
43346;DHT22;28937;51.160;4.146;2022-10-04T11:39:46;16.50;98.70
43346;DHT22;28937;51.160;4.146;2022-10-04T11:42:59;16.50;98.80
43346;DHT22;28937;51.160;4.146;2022-10-04T11:45:53;16.50;98.80
43346;DHT22;28937;51.160;4.146;2022-10-04T11:48:35;16.50;99.10
43346;DHT22;28937;51.160;4.146;2022-10-04T12:10:23;16.70;99.20
43346;DHT22;28937;51.160;4.146;2022-10-04T12:30:02;16.80;99.20
43346;DHT22;28937;51.160;4.146;2022-10-04T12:32:36;16.80;99.10
43346;DHT22;28937;51.160;4.146;2022-10-04T12:38:21;16.90;99.20
43346;DHT22;28937;51.160;4.146;2022-10-04T12:41:09;16.90;99.20
43346;DHT22;28937;51.160;4.146;2022-10-04T12:46:42;16.90;99.30
43346;DHT22;28937;51.160;4.146;2022-10-04T12:57:35;17.00;99.20
43346;DHT22;28937;51.160;4.146;2022-10-04T13:03:01;17.00;99.30
43346;DHT22;28937;51.160;4.146;2022-10-04T13:08:19;17.10;99.20
43346;DHT22;28937;51.160;4.146;2022-10-04T13:19:37;17.20;99.20
43346;DHT22;28937;51.160;4.146;2022-10-04T13:22:31;17.20;99.20
43346;DHT22;28937;51.160;4.146;2022-10-04T13:27:51;17.20;99.20
43346;DHT22;28937;51.160;4.146;2022-10-04T13:30:22;17.20;99.10
43346;DHT22;28937;51.160;4.146;2022-10-04T13:35:24;17.20;99.20
43346;DHT22;28937;51.160;4.146;2022-10-04T13:41:05;17.30;99.10
43346;DHT22;28937;51.160;4.146;2022-10-04T13:55:13;17.40;99.20
43346;DHT22;28937;51.160;4.146;2022-10-04T13:58:10;17.40;99.10
43346;DHT22;28937;51.160;4.146;2022-10-04T14:01:05;17.40;99.20
43346;DHT22;28937;51.160;4.146;2022-10-04T14:08:49;17.50;99.20
43346;DHT22;28937;51.160;4.146;2022-10-04T14:14:54;17.50;98.90
43346;DHT22;28937;51.160;4.146;2022-10-04T14:31:19;17.60;98.80
43346;DHT22;28937;51.160;4.146;2022-10-04T14:36:49;17.60;98.80
43346;DHT22;28937;51.160;4.146;2022-10-04T14:45:35;17.70;98.60
43346;DHT22;28937;51.160;4.146;2022-10-04T15:04:56;17.80;98.50
43346;DHT22;28937;51.160;4.146;2022-10-04T15:13:02;17.80;98.50
43346;DHT22;28937;51.160;4.146;2022-10-04T15:15:39;17.90;98.40
43346;DHT22;28937;51.160;4.146;2022-10-04T15:49:22;18.00;98.40
43346;DHT22;28937;51.160;4.146;2022-10-04T15:52:13;18.00;98.40
43346;DHT22;28937;51.160;4.146;2022-10-04T15:57:59;18.00;99.30
43346;DHT22;28937;51.160;4.146;2022-10-04T16:03:38;18.10;99.90
43346;DHT22;28937;51.160;4.146;2022-10-04T16:06:26;18.10;99.90
43346;DHT22;28937;51.160;4.146;2022-10-04T16:15:16;18.10;99.90
43346;DHT22;28937;51.160;4.146;2022-10-04T16:21:13;18.10;99.90
43346;DHT22;28937;51.160;4.146;2022-10-04T16:23:43;18.10;99.90
43346;DHT22;28937;51.160;4.146;2022-10-04T16:26:12;18.10;99.90
43346;DHT22;28937;51.160;4.146;2022-10-04T16:32:18;18.10;99.90
43346;DHT22;28937;51.160;4.146;2022-10-04T16:34:46;18.10;99.90
43346;DHT22;28937;51.160;4.146;2022-10-04T16:40:32;18.10;99.90
43346;DHT22;28937;51.160;4.146;2022-10-04T16:43:12;18.20;99.90
43346;DHT22;28937;51.160;4.146;2022-10-04T16:48:52;18.10;99.90
43346;DHT22;28937;51.160;4.146;2022-10-04T16:51:34;18.10;99.90
43346;DHT22;28937;51.160;4.146;2022-10-04T17:05:31;18.20;99.90
43346;DHT22;28937;51.160;4.146;2022-10-04T17:11:10;18.20;99.90
43346;DHT22;28937;51.160;4.146;2022-10-04T17:14:00;18.20;99.90
43346;DHT22;28937;51.160;4.146;2022-10-04T17:16:37;18.20;99.90
43346;DHT22;28937;51.160;4.146;2022-10-04T17:30:19;18.20;99.90
43346;DHT22;28937;51.160;4.146;2022-10-04T17:35:59;18.20;99.90
43346;DHT22;28937;51.160;4.146;2022-10-04T17:41:36;18.20;99.80
43346;DHT22;28937;51.160;4.146;2022-10-04T17:47:11;18.20;99.80
43346;DHT22;28937;51.160;4.146;2022-10-04T17:52:47;18.20;99.60
43346;DHT22;28937;51.160;4.146;2022-10-04T18:00:57;18.20;99.20
43346;DHT22;28937;51.160;4.146;2022-10-04T18:06:24;18.10;99.10
43346;DHT22;28937;51.160;4.146;2022-10-04T18:08:59;18.20;99.10
43346;DHT22;28937;51.160;4.146;2022-10-04T18:11:48;18.10;99.50
43346;DHT22;28937;51.160;4.146;2022-10-04T18:17:00;18.20;99.40
43346;DHT22;28937;51.160;4.146;2022-10-04T18:22:24;18.20;99.30
43346;DHT22;28937;51.160;4.146;2022-10-04T18:25:13;18.20;99.20
43346;DHT22;28937;51.160;4.146;2022-10-04T18:27:50;18.20;99.10
43346;DHT22;28937;51.160;4.146;2022-10-04T18:30:19;18.20;99.10
43346;DHT22;28937;51.160;4.146;2022-10-04T18:32:50;18.20;99.10
43346;DHT22;28937;51.160;4.146;2022-10-04T18:35:18;18.20;99.00
43346;DHT22;28937;51.160;4.146;2022-10-04T18:37:46;18.20;99.00
43346;DHT22;28937;51.160;4.146;2022-10-04T18:40:24;18.20;99.10
43346;DHT22;28937;51.160;4.146;2022-10-04T18:42:56;18.20;99.20
43346;DHT22;28937;51.160;4.146;2022-10-04T18:45:25;18.20;99.20
43346;DHT22;28937;51.160;4.146;2022-10-04T18:47:57;18.20;99.30
43346;DHT22;28937;51.160;4.146;2022-10-04T18:50:36;18.20;99.30
43346;DHT22;28937;51.160;4.146;2022-10-04T18:56:15;18.10;99.10
43346;DHT22;28937;51.160;4.146;2022-10-04T19:07:28;18.10;99.20
43346;DHT22;28937;51.160;4.146;2022-10-04T19:12:49;18.10;99.30
43346;DHT22;28937;51.160;4.146;2022-10-04T19:18:15;18.10;99.50
43346;DHT22;28937;51.160;4.146;2022-10-04T19:20:54;18.10;99.50
43346;DHT22;28937;51.160;4.146;2022-10-04T19:23:35;18.10;99.70
43346;DHT22;28937;51.160;4.146;2022-10-04T19:26:13;18.10;99.60
43346;DHT22;28937;51.160;4.146;2022-10-04T19:28:50;18.10;99.60
43346;DHT22;28937;51.160;4.146;2022-10-04T19:31:41;18.10;99.60
43346;DHT22;28937;51.160;4.146;2022-10-04T19:34:15;18.10;99.70
43346;DHT22;28937;51.160;4.146;2022-10-04T19:36:49;18.10;99.80
43346;DHT22;28937;51.160;4.146;2022-10-04T19:39:27;18.10;99.90
43346;DHT22;28937;51.160;4.146;2022-10-04T19:42:00;18.20;99.90
43346;DHT22;28937;51.160;4.146;2022-10-04T19:49:54;18.10;99.90
43346;DHT22;28937;51.160;4.146;2022-10-04T19:55:23;18.10;99.60
43346;DHT22;28937;51.160;4.146;2022-10-04T19:58:06;18.10;99.40
43346;DHT22;28937;51.160;4.146;2022-10-04T20:00:36;18.10;99.40
43346;DHT22;28937;51.160;4.146;2022-10-04T20:03:10;18.00;99.30
43346;DHT22;28937;51.160;4.146;2022-10-04T20:05:50;18.10;99.20
43346;DHT22;28937;51.160;4.146;2022-10-04T20:11:20;18.00;99.10
43346;DHT22;28937;51.160;4.146;2022-10-04T20:21:55;18.00;99.10
43346;DHT22;28937;51.160;4.146;2022-10-04T20:27:03;18.00;99.10
43346;DHT22;28937;51.160;4.146;2022-10-04T20:32:04;17.90;99.10
43346;DHT22;28937;51.160;4.146;2022-10-04T20:34:33;18.00;99.20
43346;DHT22;28937;51.160;4.146;2022-10-04T20:37:00;17.90;99.50
43346;DHT22;28937;51.160;4.146;2022-10-04T20:42:27;18.00;99.10
43346;DHT22;28937;51.160;4.146;2022-10-04T20:45:25;17.90;99.10
43346;DHT22;28937;51.160;4.146;2022-10-04T20:47:55;18.00;99.10
43346;DHT22;28937;51.160;4.146;2022-10-04T20:50:48;17.90;99.10
43346;DHT22;28937;51.160;4.146;2022-10-04T20:53:28;18.00;99.10
43346;DHT22;28937;51.160;4.146;2022-10-04T20:56:30;18.00;99.10
43346;DHT22;28937;51.160;4.146;2022-10-04T20:58:59;18.00;99.10
43346;DHT22;28937;51.160;4.146;2022-10-04T21:01:35;18.00;99.10
43346;DHT22;28937;51.160;4.146;2022-10-04T21:06:56;18.00;99.00
43346;DHT22;28937;51.160;4.146;2022-10-04T21:09:23;17.90;99.00
43346;DHT22;28937;51.160;4.146;2022-10-04T21:11:51;18.00;99.00
43346;DHT22;28937;51.160;4.146;2022-10-04T21:14:45;18.00;99.00
43346;DHT22;28937;51.160;4.146;2022-10-04T21:19:53;17.90;99.00
43346;DHT22;28937;51.160;4.146;2022-10-04T21:27:39;17.90;99.00
43346;DHT22;28937;51.160;4.146;2022-10-04T21:30:18;17.90;99.00
43346;DHT22;28937;51.160;4.146;2022-10-04T21:32:48;17.90;99.00
43346;DHT22;28937;51.160;4.146;2022-10-04T21:35:14;17.90;99.00
43346;DHT22;28937;51.160;4.146;2022-10-04T21:37:39;17.90;99.00
43346;DHT22;28937;51.160;4.146;2022-10-04T21:40:06;17.90;99.00
43346;DHT22;28937;51.160;4.146;2022-10-04T21:42:31;17.90;99.00
43346;DHT22;28937;51.160;4.146;2022-10-04T21:44:57;17.90;99.00
43346;DHT22;28937;51.160;4.146;2022-10-04T21:47:23;17.90;99.00
43346;DHT22;28937;51.160;4.146;2022-10-04T21:49:49;17.90;99.00
43346;DHT22;28937;51.160;4.146;2022-10-04T21:52:16;17.90;99.10
43346;DHT22;28937;51.160;4.146;2022-10-04T21:54:44;17.90;99.10
43346;DHT22;28937;51.160;4.146;2022-10-04T21:57:10;17.90;99.10
43346;DHT22;28937;51.160;4.146;2022-10-04T21:59:36;17.90;99.10
43346;DHT22;28937;51.160;4.146;2022-10-04T22:02:02;17.90;99.10
43346;DHT22;28937;51.160;4.146;2022-10-04T22:04:27;17.90;99.10
43346;DHT22;28937;51.160;4.146;2022-10-04T22:06:53;17.90;99.10
43346;DHT22;28937;51.160;4.146;2022-10-04T22:09:19;17.90;99.10
43346;DHT22;28937;51.160;4.146;2022-10-04T22:11:44;17.90;99.40
43346;DHT22;28937;51.160;4.146;2022-10-04T22:14:10;17.90;99.20
43346;DHT22;28937;51.160;4.146;2022-10-04T22:16:35;17.90;99.20
43346;DHT22;28937;51.160;4.146;2022-10-04T22:19:01;17.90;99.20
43346;DHT22;28937;51.160;4.146;2022-10-04T22:21:26;17.90;99.20
43346;DHT22;28937;51.160;4.146;2022-10-04T22:23:52;17.90;99.20
43346;DHT22;28937;51.160;4.146;2022-10-04T22:26:19;17.90;99.20
43346;DHT22;28937;51.160;4.146;2022-10-04T22:28:47;17.80;99.20
43346;DHT22;28937;51.160;4.146;2022-10-04T22:31:16;17.90;99.20
43346;DHT22;28937;51.160;4.146;2022-10-04T22:33:44;17.80;99.20
43346;DHT22;28937;51.160;4.146;2022-10-04T22:36:36;17.90;99.20
43346;DHT22;28937;51.160;4.146;2022-10-04T22:41:43;17.80;99.20
43346;DHT22;28937;51.160;4.146;2022-10-04T22:44:24;17.80;99.20
43346;DHT22;28937;51.160;4.146;2022-10-04T22:46:52;17.80;99.20
43346;DHT22;28937;51.160;4.146;2022-10-04T22:49:26;17.80;99.20
43346;DHT22;28937;51.160;4.146;2022-10-04T22:51:54;17.80;99.30
43346;DHT22;28937;51.160;4.146;2022-10-04T22:54:26;17.80;99.30
43346;DHT22;28937;51.160;4.146;2022-10-04T22:56:55;17.80;99.30
43346;DHT22;28937;51.160;4.146;2022-10-04T22:59:37;17.80;99.30
43346;DHT22;28937;51.160;4.146;2022-10-04T23:02:21;17.80;99.30
43346;DHT22;28937;51.160;4.146;2022-10-04T23:04:54;17.80;99.40
43346;DHT22;28937;51.160;4.146;2022-10-04T23:07:21;17.80;99.30
43346;DHT22;28937;51.160;4.146;2022-10-04T23:09:47;17.80;99.40
43346;DHT22;28937;51.160;4.146;2022-10-04T23:12:13;17.80;99.40
43346;DHT22;28937;51.160;4.146;2022-10-04T23:14:39;17.80;99.40
43346;DHT22;28937;51.160;4.146;2022-10-04T23:17:25;17.80;99.40
43346;DHT22;28937;51.160;4.146;2022-10-04T23:19:57;17.80;99.30
43346;DHT22;28937;51.160;4.146;2022-10-04T23:22:26;17.80;99.40
43346;DHT22;28937;51.160;4.146;2022-10-04T23:24:53;17.80;99.40
43346;DHT22;28937;51.160;4.146;2022-10-04T23:27:19;17.80;99.40
43346;DHT22;28937;51.160;4.146;2022-10-04T23:29:45;17.80;99.30
43346;DHT22;28937;51.160;4.146;2022-10-04T23:32:14;17.80;99.40
43346;DHT22;28937;51.160;4.146;2022-10-04T23:34:43;17.80;99.40
43346;DHT22;28937;51.160;4.146;2022-10-04T23:39:39;17.80;99.40
43346;DHT22;28937;51.160;4.146;2022-10-04T23:42:19;17.80;99.40
43346;DHT22;28937;51.160;4.146;2022-10-04T23:44:49;17.80;99.40
43346;DHT22;28937;51.160;4.146;2022-10-04T23:47:17;17.80;99.40
43346;DHT22;28937;51.160;4.146;2022-10-04T23:49:44;17.70;99.40
43346;DHT22;28937;51.160;4.146;2022-10-04T23:52:20;17.80;99.50
43346;DHT22;28937;51.160;4.146;2022-10-04T23:54:51;17.70;99.40
43346;DHT22;28937;51.160;4.146;2022-10-04T23:57:22;17.70;99.50
43346;DHT22;28937;51.160;4.146;2022-10-04T23:59:49;17.70;99.40
